MSC Romane — CQZN — position and weather

sailwx.info

Track history (hours):
 
Tides and Currents Weather Stations Pressure Air Temp Water Temp Dewpoint Dewpoint Depression Visibility Wind Speed Wind Dir Waves Ship Positions

MSC Romane

Last reported at 2018-Jun-20 13:30 UTC. Time now 2018-Jun-20 13:34 UTC.
Position N 40°02' E 014°28'.

Length 299 m; draft 10.2 m.

Type: Ship (hazmat cat A). MMSI: 255805867.

Date/timePositionNaut miles runAvg speedWind from/ knotsBaromVisibWave heightAir tempDewpointWater temp
2018-Jun-20 13:30N 40°02' E 014°28'7313.2
2018-Jun-20 07:58N 38°59' E 015°16'1116.0
2018-Jun-20 07:17N 38°50' E 015°23'716.2
2018-Jun-20 06:52N 38°44' E 015°27'1216.1
2018-Jun-20 06:08N 38°34' E 015°34'417.6
2018-Jun-20 05:53N 38°29' E 015°36'717.9
2018-Jun-20 05:28N 38°23' E 015°40'815.2
2018-Jun-20 04:58N 38°15' E 015°41'714.0
2018-Jun-20 04:30N 38°09' E 015°37'915.5
2018-Jun-20 03:55N 38°01' E 015°35'716.3
2018-Jun-20 03:30N 37°55' E 015°39'1416.7
2018-Jun-20 02:40N 37°50' E 015°56'  
2018-Jun-14 17:05N 34°40' E 031°52'121.5
2018-Jun-14 17:00N 34°39' E 031°51'  
2018-Jun-10 18:52N 32°25' E 031°35'611.2
2018-Jun-10 18:18N 32°28' E 031°41'1611.0
2018-Jun-10 16:52N 32°35' E 031°58'710.4
2018-Jun-10 16:10N 32°38' E 032°06'210.2
2018-Jun-10 16:00N 32°39' E 032°08'710.4
2018-Jun-10 15:20N 32°42' E 032°15'310.4
2018-Jun-10 15:00N 32°43' E 032°19'510.6
2018-Jun-10 14:30N 32°46' E 032°24'1110.8
2018-Jun-10 13:30N 32°50' E 032°36'  
Track history (hours):
 
Tides and Currents Weather Stations Pressure Air Temp Water Temp Dewpoint Dewpoint Depression Visibility Wind Speed Wind Dir Waves Ship Positions

MSC Romane

Last reported at 2018-Jun-20 13:30 UTC. Time now 2018-Jun-20 13:34 UTC.
Position N 40°02' E 014°28'.

Length 299 m; draft 10.2 m.

Type: Ship (hazmat cat A). MMSI: 255805867.

Date/timePositionNaut miles runAvg speedWind from/ knotsBaromVisibWave heightAir tempDewpointWater temp
2018-Jun-20 13:30N 40°02' E 014°28'7313.2
2018-Jun-20 07:58N 38°59' E 015°16'1116.0
2018-Jun-20 07:17N 38°50' E 015°23'716.2
2018-Jun-20 06:52N 38°44' E 015°27'1216.1
2018-Jun-20 06:08N 38°34' E 015°34'417.6
2018-Jun-20 05:53N 38°29' E 015°36'717.9
2018-Jun-20 05:28N 38°23' E 015°40'815.2
2018-Jun-20 04:58N 38°15' E 015°41'714.0
2018-Jun-20 04:30N 38°09' E 015°37'915.5
2018-Jun-20 03:55N 38°01' E 015°35'716.3
2018-Jun-20 03:30N 37°55' E 015°39'1416.7
2018-Jun-20 02:40N 37°50' E 015°56'  
2018-Jun-14 17:05N 34°40' E 031°52'121.5
2018-Jun-14 17:00N 34°39' E 031°51'  
2018-Jun-10 18:52N 32°25' E 031°35'611.2
2018-Jun-10 18:18N 32°28' E 031°41'1611.0
2018-Jun-10 16:52N 32°35' E 031°58'710.4
2018-Jun-10 16:10N 32°38' E 032°06'210.2
2018-Jun-10 16:00N 32°39' E 032°08'710.4
2018-Jun-10 15:20N 32°42' E 032°15'310.4
2018-Jun-10 15:00N 32°43' E 032°19'510.6
2018-Jun-10 14:30N 32°46' E 032°24'1110.8
2018-Jun-10 13:30N 32°50' E 032°36'  

Dump ship's entire track history